createdAt,value
2018-07-22T00:01:09.676Z,8.77
2018-07-22T00:03:39.604Z,8.73
2018-07-22T00:06:09.600Z,7.87
2018-07-22T00:08:39.466Z,7.80
2018-07-22T00:11:09.367Z,9.07
2018-07-22T00:13:39.259Z,8.07
2018-07-22T00:16:09.103Z,7.97
2018-07-22T00:18:39.111Z,8.50
2018-07-22T00:21:08.896Z,8.53
2018-07-22T00:23:38.695Z,9.40
2018-07-22T00:26:08.576Z,8.60
2018-07-22T00:28:38.423Z,8.53
2018-07-22T00:31:08.589Z,9.13
2018-07-22T00:33:38.447Z,9.60
2018-07-22T00:36:08.376Z,8.90
2018-07-22T00:38:38.172Z,8.40
2018-07-22T00:41:08.797Z,9.10
2018-07-22T00:43:38.658Z,9.30
2018-07-22T00:46:07.475Z,8.53
2018-07-22T00:48:37.178Z,8.37
2018-07-22T00:51:07.362Z,8.80
2018-07-22T00:53:37.277Z,8.70
2018-07-22T00:56:07.275Z,8.43
2018-07-22T00:58:37.192Z,8.67
2018-07-22T01:01:07.172Z,9.10
2018-07-22T01:03:37.268Z,8.57
2018-07-22T01:06:07.284Z,8.33
2018-07-22T01:08:37.228Z,8.53
2018-07-22T01:11:07.358Z,9.00
2018-07-22T01:13:37.500Z,8.77
2018-07-22T01:16:07.484Z,9.00
2018-07-22T01:18:37.455Z,8.40
2018-07-22T01:21:07.613Z,8.80
2018-07-22T01:23:37.647Z,8.60
2018-07-22T01:26:07.539Z,9.03
2018-07-22T01:28:37.505Z,8.40
2018-07-22T01:31:07.406Z,9.30
2018-07-22T01:33:37.416Z,9.00
2018-07-22T01:36:07.344Z,9.73
2018-07-22T01:38:37.304Z,9.13
2018-07-22T01:41:07.365Z,8.77
2018-07-22T01:43:37.296Z,9.17
2018-07-22T01:46:07.197Z,8.43
2018-07-22T01:48:37.159Z,8.60
2018-07-22T01:51:07.076Z,9.33
2018-07-22T01:53:37.066Z,9.97
2018-07-22T01:56:09.909Z,10.53
2018-07-22T01:58:39.789Z,10.33
2018-07-22T02:01:09.691Z,9.77
2018-07-22T02:03:39.671Z,9.70
2018-07-22T02:06:09.644Z,8.97
2018-07-22T02:08:39.590Z,8.40
2018-07-22T02:11:09.531Z,8.83
2018-07-22T02:13:39.427Z,8.97
2018-07-22T02:16:09.343Z,9.67
2018-07-22T02:18:39.203Z,8.67
2018-07-22T02:21:09.147Z,8.30
2018-07-22T02:23:38.924Z,9.20
2018-07-22T02:26:08.981Z,8.67
2018-07-22T02:28:38.779Z,10.10
2018-07-22T02:31:09.495Z,9.70
2018-07-22T02:33:39.564Z,9.73
2018-07-22T02:36:09.463Z,9.53
2018-07-22T02:38:39.276Z,9.50
2018-07-22T02:41:09.196Z,10.33
2018-07-22T02:43:39.160Z,9.30
2018-07-22T02:46:08.996Z,9.50
2018-07-22T02:48:39.037Z,9.80
2018-07-22T02:51:08.999Z,9.60
2018-07-22T02:53:38.982Z,9.90
2018-07-22T02:56:08.910Z,9.10
2018-07-22T02:58:38.876Z,9.20
2018-07-22T03:01:08.696Z,9.80
2018-07-22T03:03:38.593Z,9.43
2018-07-22T03:06:08.510Z,9.77
2018-07-22T03:08:38.431Z,10.23
2018-07-22T03:11:08.420Z,9.93
2018-07-22T03:13:38.324Z,9.80
2018-07-22T03:16:08.647Z,9.60
2018-07-22T03:18:38.572Z,10.13
2018-07-22T03:21:08.478Z,9.97
2018-07-22T03:23:38.562Z,10.07
2018-07-22T03:26:08.351Z,9.93
2018-07-22T03:28:38.240Z,10.10
2018-07-22T03:31:08.146Z,10.30
2018-07-22T03:33:38.104Z,9.90
2018-07-22T03:36:07.950Z,10.30
2018-07-22T03:38:37.896Z,9.60
2018-07-22T03:41:07.731Z,10.57
2018-07-22T03:43:37.667Z,10.90
2018-07-22T03:46:07.786Z,11.60
2018-07-22T03:48:37.631Z,11.50
2018-07-22T03:51:07.743Z,10.77
2018-07-22T03:53:37.662Z,10.43
2018-07-22T03:56:07.511Z,11.00
2018-07-22T03:58:37.527Z,11.13
2018-07-22T04:01:07.560Z,10.53
2018-07-22T04:03:37.483Z,10.70
2018-07-22T04:06:07.455Z,11.70
2018-07-22T04:08:37.239Z,11.07
2018-07-22T04:11:13.516Z,11.77
2018-07-22T04:13:43.498Z,10.90
2018-07-22T04:16:13.342Z,10.60
2018-07-22T04:18:52.899Z,10.83
2018-07-22T04:21:24.178Z,10.50
2018-07-22T04:23:54.064Z,11.33
2018-07-22T04:26:24.028Z,10.37
2018-07-22T04:28:53.939Z,11.70
2018-07-22T04:31:23.880Z,11.93
2018-07-22T04:33:53.850Z,10.83
2018-07-22T04:36:23.751Z,11.33
2018-07-22T04:38:53.553Z,31.93
2018-07-22T04:41:23.422Z,24.63
2018-07-22T04:43:53.428Z,14.13
2018-07-22T04:46:23.515Z,11.90
2018-07-22T04:48:53.481Z,11.10
2018-07-22T04:51:23.425Z,11.17
2018-07-22T04:53:53.936Z,11.93
2018-07-22T04:56:23.973Z,11.47
2018-07-22T04:58:53.964Z,11.77
2018-07-22T05:01:23.849Z,11.87
2018-07-22T05:03:53.789Z,12.37
2018-07-22T05:06:23.635Z,11.87
2018-07-22T05:08:53.656Z,11.20
2018-07-22T05:11:23.627Z,11.60
2018-07-22T05:13:53.564Z,11.27
2018-07-22T05:16:23.512Z,11.00
2018-07-22T05:18:53.668Z,11.60
2018-07-22T05:21:29.905Z,11.83
2018-07-22T05:23:59.764Z,11.43
2018-07-22T05:26:29.700Z,11.03
2018-07-22T05:28:59.575Z,11.37
2018-07-22T05:31:29.741Z,12.30
2018-07-22T05:33:59.668Z,11.60
2018-07-22T05:36:29.594Z,10.93
2018-07-22T05:38:59.468Z,10.70
2018-07-22T05:41:29.355Z,10.87
2018-07-22T05:43:59.207Z,11.47
2018-07-22T05:46:29.130Z,11.87
2018-07-22T05:48:59.105Z,12.07
2018-07-22T05:51:29.069Z,11.10
2018-07-22T05:53:58.940Z,11.20
2018-07-22T05:56:28.820Z,11.47
2018-07-22T05:58:58.767Z,11.57
2018-07-22T06:01:28.702Z,12.13
2018-07-22T06:03:58.561Z,11.03
2018-07-22T06:06:28.471Z,12.27
2018-07-22T06:08:58.524Z,12.30
2018-07-22T06:11:28.488Z,11.53
2018-07-22T06:13:58.446Z,11.60
2018-07-22T06:16:28.632Z,11.97
2018-07-22T06:18:58.609Z,11.97
2018-07-22T06:21:28.940Z,12.47
2018-07-22T06:23:58.918Z,11.87
2018-07-22T06:26:28.793Z,11.50
2018-07-22T06:28:58.741Z,12.70
2018-07-22T06:31:28.820Z,13.20
2018-07-22T06:33:58.662Z,11.97
2018-07-22T06:36:28.574Z,13.73
2018-07-22T06:38:58.412Z,12.70
2018-07-22T06:41:28.308Z,13.60
2018-07-22T06:43:58.188Z,13.00
2018-07-22T06:46:28.045Z,12.70
2018-07-22T06:48:58.038Z,12.70
2018-07-22T06:51:27.979Z,12.63
2018-07-22T06:53:57.963Z,13.30
2018-07-22T06:56:27.763Z,13.60
2018-07-22T06:58:58.158Z,12.37
2018-07-22T07:01:28.087Z,12.97
2018-07-22T07:03:57.983Z,13.20
2018-07-22T07:06:27.884Z,12.53
2018-07-22T07:08:57.779Z,13.63
2018-07-22T07:11:27.776Z,13.97
2018-07-22T07:13:59.411Z,13.80
2018-07-22T07:16:29.331Z,12.67
2018-07-22T07:18:59.107Z,13.90
2018-07-22T07:21:29.056Z,12.33
2018-07-22T07:23:58.820Z,13.43
2018-07-22T07:26:28.685Z,12.63
2018-07-22T07:28:58.659Z,12.80
2018-07-22T07:31:29.195Z,12.90
2018-07-22T07:33:59.101Z,14.03
2018-07-22T07:36:29.051Z,12.90
2018-07-22T07:38:58.905Z,11.23
2018-07-22T07:41:28.922Z,12.03
2018-07-22T07:43:59.026Z,12.73
2018-07-22T07:46:28.863Z,12.37
2018-07-22T07:48:58.993Z,11.93
2018-07-22T07:51:29.014Z,13.07
2018-07-22T07:53:58.863Z,13.43
2018-07-22T07:56:28.995Z,14.03
2018-07-22T07:58:59.031Z,12.33
2018-07-22T08:01:29.347Z,14.23
2018-07-22T08:03:59.636Z,13.87
2018-07-22T08:06:29.809Z,14.77
2018-07-22T08:08:59.857Z,16.00
2018-07-22T08:11:29.800Z,16.00
2018-07-22T08:13:59.959Z,16.10
2018-07-22T08:16:29.804Z,14.67
2018-07-22T08:18:59.770Z,13.87
2018-07-22T08:21:29.764Z,13.70
2018-07-22T08:23:59.746Z,13.90
2018-07-22T08:26:29.674Z,13.40
2018-07-22T08:29:33.106Z,11.87
2018-07-22T08:32:04.263Z,12.00
2018-07-22T08:34:34.175Z,13.53
2018-07-22T08:37:04.105Z,11.37
2018-07-22T08:39:34.131Z,10.47
2018-07-22T08:42:04.117Z,11.90
2018-07-22T08:44:33.936Z,10.67
2018-07-22T08:47:03.842Z,11.13
2018-07-22T08:49:33.594Z,11.37
2018-07-22T08:52:03.352Z,11.00
2018-07-22T08:54:33.294Z,11.03
2018-07-22T08:57:03.251Z,10.97
2018-07-22T08:59:33.111Z,9.97
2018-07-22T09:02:02.998Z,10.60
2018-07-22T09:04:32.999Z,10.00
2018-07-22T09:07:02.873Z,10.50
2018-07-22T09:09:32.677Z,10.93
2018-07-22T09:12:02.529Z,9.80
2018-07-22T09:14:32.496Z,10.13
2018-07-22T09:17:02.382Z,9.53
2018-07-22T09:19:32.353Z,9.67
2018-07-22T09:22:02.241Z,9.57
2018-07-22T09:24:32.045Z,9.33
2018-07-22T09:27:08.583Z,9.53
2018-07-22T09:29:38.419Z,9.30
2018-07-22T09:32:08.553Z,10.23
2018-07-22T09:34:38.500Z,9.93
2018-07-22T09:37:08.421Z,9.17
2018-07-22T09:39:38.354Z,9.53
2018-07-22T09:42:08.465Z,9.30
2018-07-22T09:44:38.299Z,10.30
2018-07-22T09:47:08.139Z,9.57
2018-07-22T09:49:38.009Z,9.07
2018-07-22T09:52:07.918Z,9.97
2018-07-22T09:54:37.897Z,10.07
2018-07-22T09:57:07.760Z,10.73
2018-07-22T09:59:37.656Z,10.00
2018-07-22T10:02:07.556Z,11.10
2018-07-22T10:04:37.546Z,9.73
2018-07-22T10:07:08.202Z,10.57
2018-07-22T10:09:38.153Z,10.30
2018-07-22T10:12:08.232Z,10.70
2018-07-22T10:14:38.202Z,10.30
2018-07-22T10:17:08.031Z,9.53
2018-07-22T10:19:37.892Z,11.40
2018-07-22T10:22:07.751Z,9.80
2018-07-22T10:24:37.732Z,9.53
2018-07-22T10:27:07.671Z,9.67
2018-07-22T10:29:37.571Z,10.03
2018-07-22T10:32:07.937Z,9.97
2018-07-22T10:34:37.796Z,9.00
2018-07-22T10:37:07.547Z,9.80
2018-07-22T10:39:37.307Z,8.53
2018-07-22T10:42:07.188Z,8.43
2018-07-22T10:44:37.010Z,9.80
2018-07-22T10:47:06.820Z,10.43
2018-07-22T10:49:37.252Z,9.83
2018-07-22T10:52:07.087Z,7.97
2018-07-22T10:54:37.018Z,8.27
2018-07-22T10:57:07.008Z,8.90
2018-07-22T10:59:36.905Z,8.77
2018-07-22T11:02:06.789Z,9.27
2018-07-22T11:04:36.608Z,9.00
2018-07-22T11:07:06.548Z,9.50
2018-07-22T11:09:36.354Z,9.50
2018-07-22T11:12:06.224Z,9.07
2018-07-22T11:14:36.212Z,9.07
2018-07-22T11:17:06.283Z,9.13
2018-07-22T11:19:36.298Z,9.00
2018-07-22T11:22:06.185Z,9.30
2018-07-22T11:24:36.051Z,9.70
2018-07-22T11:27:06.038Z,8.53
2018-07-22T11:29:36.436Z,7.97
2018-07-22T11:32:06.436Z,9.63
2018-07-22T11:34:36.200Z,9.17
2018-07-22T11:37:06.032Z,9.78
2018-07-22T11:39:35.779Z,10.03
2018-07-22T11:42:05.664Z,9.80
2018-07-22T11:44:35.547Z,7.93
2018-07-22T11:47:05.496Z,8.57
2018-07-22T11:49:35.397Z,7.90
2018-07-22T11:52:05.229Z,8.60
2018-07-22T11:54:35.040Z,7.60
2018-07-22T11:57:05.006Z,7.23
2018-07-22T11:59:34.864Z,7.30
2018-07-22T12:02:05.082Z,7.77
2018-07-22T12:04:35.920Z,8.73
2018-07-22T12:07:05.864Z,7.43
2018-07-22T12:09:35.788Z,8.27
2018-07-22T12:12:05.862Z,8.23
2018-07-22T12:14:35.798Z,7.90
2018-07-22T12:17:06.324Z,7.70
2018-07-22T12:19:36.196Z,6.97
2018-07-22T12:22:06.055Z,6.80
2018-07-22T12:24:35.829Z,5.67
2018-07-22T12:27:05.909Z,6.43
2018-07-22T12:29:35.858Z,7.00
2018-07-22T12:32:05.789Z,7.13
2018-07-22T12:34:35.864Z,7.50
2018-07-22T12:37:05.720Z,8.67
2018-07-22T12:39:36.351Z,8.77
2018-07-22T12:42:06.681Z,9.37
2018-07-22T12:44:36.589Z,8.97
2018-07-22T12:47:07.343Z,8.93
2018-07-22T12:49:37.167Z,9.73
2018-07-22T12:52:07.010Z,9.43
2018-07-22T12:54:36.832Z,9.10
2018-07-22T12:57:06.880Z,9.60
2018-07-22T12:59:36.886Z,8.87
2018-07-22T13:02:06.886Z,8.97
2018-07-22T13:04:36.719Z,9.20
2018-07-22T13:07:07.065Z,9.87
2018-07-22T13:09:36.850Z,9.57
2018-07-22T13:12:06.788Z,11.70
2018-07-22T13:14:36.595Z,11.10
2018-07-22T13:17:06.427Z,11.80
2018-07-22T13:19:36.251Z,11.60
2018-07-22T13:22:06.059Z,6.30
2018-07-22T13:24:35.801Z,15.83
2018-07-22T13:27:05.760Z,10.83
2018-07-22T13:29:35.528Z,9.10
2018-07-22T13:32:05.467Z,8.23
2018-07-22T13:34:35.313Z,7.50
2018-07-22T13:37:05.102Z,7.90
2018-07-22T13:39:34.939Z,7.67
2018-07-22T13:42:04.734Z,6.93
2018-07-22T13:44:34.672Z,7.30
2018-07-22T13:47:04.475Z,8.23
2018-07-22T13:49:34.788Z,5.67
2018-07-22T13:52:04.555Z,6.43
2018-07-22T13:54:34.492Z,6.57
2018-07-22T13:57:04.405Z,7.17
2018-07-22T13:59:34.339Z,6.70
2018-07-22T14:02:04.256Z,6.93
2018-07-22T14:04:34.217Z,8.27
2018-07-22T14:07:04.278Z,6.53
2018-07-22T14:09:34.147Z,7.17
2018-07-22T14:12:04.221Z,6.10
2018-07-22T14:14:34.139Z,5.60
2018-07-22T14:17:04.068Z,6.63
2018-07-22T14:19:33.977Z,6.57
2018-07-22T14:22:04.019Z,6.63
2018-07-22T14:24:34.374Z,7.63
2018-07-22T14:27:04.175Z,7.27
2018-07-22T14:29:34.150Z,6.77
2018-07-22T14:32:04.077Z,6.80
2018-07-22T14:34:34.033Z,7.33
2018-07-22T14:37:03.871Z,7.27
2018-07-22T14:39:34.043Z,7.07
2018-07-22T14:42:04.107Z,6.67
2018-07-22T14:44:33.997Z,8.30
2018-07-22T14:47:04.022Z,12.90
2018-07-22T14:49:33.903Z,10.47
2018-07-22T14:52:03.755Z,7.97
2018-07-22T14:54:33.700Z,7.50
2018-07-22T14:57:03.523Z,6.70
2018-07-22T14:59:33.502Z,6.83
2018-07-22T15:02:03.300Z,6.77
2018-07-22T15:04:33.251Z,7.23
2018-07-22T15:07:03.158Z,6.67
2018-07-22T15:09:33.019Z,6.87
2018-07-22T15:12:02.994Z,6.87
2018-07-22T15:14:32.911Z,6.77
2018-07-22T15:17:02.775Z,6.70
2018-07-22T15:19:32.648Z,6.70
2018-07-22T15:22:02.676Z,7.33
2018-07-22T15:24:32.712Z,7.93
2018-07-22T15:27:02.736Z,9.37
2018-07-22T15:29:32.691Z,8.67
2018-07-22T15:32:02.459Z,8.53
2018-07-22T15:34:32.251Z,8.33
2018-07-22T15:37:02.079Z,9.07
2018-07-22T15:39:32.220Z,13.23
2018-07-22T15:42:01.987Z,9.47
2018-07-22T15:44:31.840Z,9.87
2018-07-22T15:47:01.751Z,8.00
2018-07-22T15:49:31.711Z,8.77
2018-07-22T15:52:01.720Z,7.83
2018-07-22T15:54:31.674Z,7.90
2018-07-22T15:57:01.708Z,9.87
2018-07-22T15:59:31.570Z,20.47
2018-07-22T16:02:01.515Z,24.90
2018-07-22T16:04:31.693Z,20.67
2018-07-22T16:07:01.587Z,14.23
2018-07-22T16:09:31.416Z,11.23
2018-07-22T16:12:01.157Z,10.27
2018-07-22T16:14:30.987Z,10.43
2018-07-22T16:17:00.970Z,9.93
2018-07-22T16:19:30.756Z,10.23
2018-07-22T16:22:00.634Z,10.37
2018-07-22T16:24:30.429Z,9.60
2018-07-22T16:27:00.224Z,9.97
2018-07-22T16:29:29.995Z,9.63
2018-07-22T16:31:59.811Z,8.60
2018-07-22T16:34:29.718Z,9.17
2018-07-22T16:36:59.511Z,11.30
2018-07-22T16:39:29.339Z,12.70
2018-07-22T16:41:59.317Z,20.27
2018-07-22T16:44:29.240Z,15.90
2018-07-22T16:46:59.884Z,9.37
2018-07-22T16:49:29.884Z,10.20
2018-07-22T16:51:59.851Z,9.60
2018-07-22T16:54:29.756Z,8.77
2018-07-22T16:56:59.656Z,10.80
2018-07-22T16:59:29.637Z,9.80
2018-07-22T17:01:59.521Z,9.00
2018-07-22T17:04:29.376Z,9.93
2018-07-22T17:06:59.219Z,9.10
2018-07-22T17:09:29.079Z,9.73
2018-07-22T17:11:58.885Z,9.90
2018-07-22T17:14:28.882Z,8.97
2018-07-22T17:16:58.774Z,9.47
2018-07-22T17:19:28.585Z,8.83
2018-07-22T17:21:58.399Z,7.63
2018-07-22T17:24:28.334Z,7.77
2018-07-22T17:26:58.144Z,8.57
2018-07-22T17:29:27.931Z,7.50
2018-07-22T17:31:57.687Z,8.50
2018-07-22T17:34:27.484Z,7.73
2018-07-22T17:36:57.346Z,8.17
2018-07-22T17:39:27.253Z,8.40
2018-07-22T17:41:57.364Z,6.73
2018-07-22T17:44:27.203Z,7.97
2018-07-22T17:46:57.032Z,7.30
2018-07-22T17:49:26.937Z,7.80
2018-07-22T17:51:56.715Z,6.87
2018-07-22T17:54:26.499Z,7.50
2018-07-22T17:56:56.449Z,7.40
2018-07-22T17:59:26.542Z,7.90
2018-07-22T18:01:56.411Z,7.20
2018-07-22T18:04:26.240Z,7.50
2018-07-22T18:06:56.076Z,8.00
2018-07-22T18:09:25.927Z,8.00
2018-07-22T18:11:55.812Z,7.47
2018-07-22T18:14:32.234Z,8.17
2018-07-22T18:17:02.231Z,8.53
2018-07-22T18:19:32.103Z,9.37
2018-07-22T18:22:01.909Z,8.40
2018-07-22T18:24:31.868Z,9.57
2018-07-22T18:27:01.648Z,9.70
2018-07-22T18:29:31.522Z,8.93
2018-07-22T18:32:01.438Z,8.97
2018-07-22T18:34:31.379Z,8.53
2018-07-22T18:37:01.293Z,8.43
2018-07-22T18:39:31.227Z,8.10
2018-07-22T18:42:01.245Z,7.70
2018-07-22T18:44:31.178Z,8.07
2018-07-22T18:47:01.036Z,8.73
2018-07-22T18:49:30.873Z,9.13
2018-07-22T18:52:00.735Z,11.40
2018-07-22T18:54:30.687Z,10.47
2018-07-22T18:57:00.472Z,8.70
2018-07-22T18:59:30.232Z,9.80
2018-07-22T19:02:00.076Z,13.73
2018-07-22T19:04:29.896Z,10.43
2018-07-22T19:06:59.695Z,9.30
2018-07-22T19:09:29.717Z,8.83
2018-07-22T19:11:59.582Z,7.83
2018-07-22T19:14:29.411Z,8.50
2018-07-22T19:16:59.289Z,9.27
2018-07-22T19:19:29.086Z,8.87
2018-07-22T19:21:58.912Z,8.70
2018-07-22T19:24:28.814Z,8.37
2018-07-22T19:26:58.698Z,7.80
2018-07-22T19:29:28.660Z,8.33
2018-07-22T19:31:58.524Z,8.60
2018-07-22T19:34:28.423Z,7.77
2018-07-22T19:36:58.377Z,8.70
2018-07-22T19:39:28.161Z,8.97
2018-07-22T19:41:58.039Z,8.10
2018-07-22T19:44:27.903Z,8.17
2018-07-22T19:46:57.823Z,8.90
2018-07-22T19:49:27.870Z,9.03
2018-07-22T19:51:57.739Z,8.77
2018-07-22T19:54:27.684Z,9.80
2018-07-22T19:56:59.242Z,10.23
2018-07-22T19:59:29.223Z,9.97
2018-07-22T20:01:59.263Z,9.47
2018-07-22T20:04:29.156Z,9.70
2018-07-22T20:06:59.077Z,8.83
2018-07-22T20:09:29.038Z,9.60
2018-07-22T20:11:58.975Z,10.27
2018-07-22T20:14:28.818Z,10.80
2018-07-22T20:16:58.607Z,9.90
2018-07-22T20:19:28.466Z,9.97
2018-07-22T20:21:58.332Z,10.10
2018-07-22T20:24:28.305Z,9.43
2018-07-22T20:26:58.041Z,8.93
2018-07-22T20:29:28.002Z,9.20
2018-07-22T20:31:57.995Z,8.63
2018-07-22T20:34:27.894Z,9.00
2018-07-22T20:36:57.878Z,8.97
2018-07-22T20:39:27.812Z,8.50
2018-07-22T20:41:57.776Z,8.60
2018-07-22T20:44:27.667Z,8.60
2018-07-22T20:46:57.475Z,8.40
2018-07-22T20:49:27.325Z,8.40
2018-07-22T20:51:57.236Z,8.63
2018-07-22T20:54:27.212Z,7.83
2018-07-22T20:56:57.152Z,7.60
2018-07-22T20:59:27.053Z,8.20
2018-07-22T21:01:56.939Z,8.83
2018-07-22T21:04:27.725Z,7.60
2018-07-22T21:06:57.566Z,8.13
2018-07-22T21:09:27.469Z,8.53
2018-07-22T21:13:06.936Z,8.17
2018-07-22T21:15:36.951Z,9.50
2018-07-22T21:18:06.912Z,8.93
2018-07-22T21:20:36.838Z,7.77
2018-07-22T21:23:07.143Z,8.30
2018-07-22T21:25:37.106Z,8.17
2018-07-22T21:28:07.071Z,8.00
2018-07-22T21:30:36.934Z,8.20
2018-07-22T21:33:06.765Z,7.77
2018-07-22T21:35:36.631Z,7.93
2018-07-22T21:38:06.519Z,9.13
2018-07-22T21:40:36.360Z,8.33
2018-07-22T21:43:06.195Z,9.17
2018-07-22T21:45:36.067Z,9.17
2018-07-22T21:48:06.119Z,9.20
2018-07-22T21:50:36.127Z,9.00
2018-07-22T21:53:05.991Z,8.30
2018-07-22T21:55:35.975Z,8.27
2018-07-22T21:58:05.828Z,8.50
2018-07-22T22:00:40.864Z,7.53
2018-07-22T22:03:10.732Z,7.53
2018-07-22T22:05:40.816Z,7.53
2018-07-22T22:08:10.717Z,7.20
2018-07-22T22:10:40.712Z,7.67
2018-07-22T22:13:10.519Z,7.40
2018-07-22T22:15:40.617Z,7.97
2018-07-22T22:18:10.480Z,6.63
2018-07-22T22:20:40.701Z,7.03
2018-07-22T22:23:10.571Z,7.67
2018-07-22T22:25:40.540Z,8.13
2018-07-22T22:28:10.495Z,7.70
2018-07-22T22:30:40.453Z,7.30
2018-07-22T22:33:10.360Z,7.03
2018-07-22T22:35:40.264Z,7.27
2018-07-22T22:38:10.089Z,7.83
2018-07-22T22:40:39.950Z,8.23
2018-07-22T22:43:09.955Z,7.07
2018-07-22T22:45:39.904Z,7.83
2018-07-22T22:48:09.831Z,8.00
2018-07-22T22:50:39.784Z,8.10
2018-07-22T22:53:09.604Z,6.93
2018-07-22T22:55:39.719Z,7.27
2018-07-22T22:58:20.162Z,7.53
2018-07-22T23:00:50.028Z,7.77
2018-07-22T23:03:19.955Z,8.00
2018-07-22T23:05:49.806Z,6.90
2018-07-22T23:08:19.767Z,7.23
2018-07-22T23:10:49.571Z,7.33
2018-07-22T23:13:19.363Z,7.07
2018-07-22T23:15:49.361Z,7.53
2018-07-22T23:18:19.170Z,6.53
2018-07-22T23:20:49.249Z,7.20
2018-07-22T23:23:20.279Z,7.47
2018-07-22T23:25:50.207Z,7.70
2018-07-22T23:28:20.093Z,7.53
2018-07-22T23:30:49.918Z,8.00
2018-07-22T23:33:19.734Z,6.93
2018-07-22T23:35:49.567Z,7.73
2018-07-22T23:38:19.338Z,7.40
2018-07-22T23:40:49.240Z,7.23
2018-07-22T23:43:19.128Z,7.70
2018-07-22T23:45:49.019Z,7.37
2018-07-22T23:48:18.963Z,7.73
2018-07-22T23:50:48.843Z,6.93
2018-07-22T23:53:18.695Z,7.27
2018-07-22T23:55:48.467Z,6.73
2018-07-22T23:58:18.436Z,6.87
